createdAt,value
2023-02-15T00:01:08.564Z,181.20
2023-02-15T00:04:15.879Z,185.87
2023-02-15T00:07:21.854Z,190.07
2023-02-15T00:10:27.894Z,195.63
2023-02-15T00:13:36.636Z,181.40
2023-02-15T00:16:44.280Z,179.30
2023-02-15T00:19:50.425Z,176.73
2023-02-15T00:22:56.925Z,176.73
2023-02-15T00:26:07.381Z,170.13
2023-02-15T00:29:15.928Z,179.93
2023-02-15T00:32:21.676Z,158.13
2023-02-15T00:35:27.735Z,177.87
2023-02-15T00:38:34.156Z,172.83
2023-02-15T00:41:40.592Z,190.10
2023-02-15T00:44:48.139Z,170.33
2023-02-15T00:47:54.175Z,170.30
2023-02-15T00:51:02.394Z,177.27
2023-02-15T00:54:09.445Z,161.60
2023-02-15T00:57:15.960Z,174.57
2023-02-15T01:00:23.330Z,174.03
2023-02-15T01:03:29.453Z,165.43
2023-02-15T01:06:35.135Z,161.63
2023-02-15T01:09:41.363Z,169.67
2023-02-15T01:12:46.687Z,167.77
2023-02-15T01:15:57.434Z,167.00
2023-02-15T01:19:04.589Z,156.70
2023-02-15T01:22:10.579Z,168.37
2023-02-15T01:25:16.365Z,177.13
2023-02-15T01:28:22.522Z,173.80
2023-02-15T01:31:29.272Z,173.60
2023-02-15T01:34:35.334Z,168.17
2023-02-15T01:37:41.176Z,167.03
2023-02-15T01:40:47.396Z,156.00
2023-02-15T01:43:55.112Z,167.57
2023-02-15T01:47:02.251Z,167.10
2023-02-15T01:50:13.754Z,177.37
2023-02-15T01:53:26.248Z,180.60
2023-02-15T01:56:35.764Z,190.97
2023-02-15T01:59:45.111Z,202.43
2023-02-15T02:02:56.085Z,188.63
2023-02-15T02:06:02.395Z,171.43
2023-02-15T02:09:08.971Z,182.30
2023-02-15T02:12:15.197Z,187.40
2023-02-15T02:15:29.847Z,185.37
2023-02-15T02:18:49.076Z,179.17
2023-02-15T02:22:22.720Z,181.53
2023-02-15T02:25:56.985Z,168.10
2023-02-15T02:29:32.432Z,177.43
2023-02-15T02:33:14.893Z,164.20
2023-02-15T02:36:30.256Z,175.47
2023-02-15T02:39:42.458Z,183.73
2023-02-15T02:42:57.050Z,158.97
2023-02-15T02:46:12.437Z,154.33
2023-02-15T02:49:18.485Z,157.33
2023-02-15T02:52:44.057Z,156.70
2023-02-15T02:55:54.206Z,160.77
2023-02-15T02:59:03.896Z,167.50
2023-02-15T03:02:15.549Z,174.37
2023-02-15T03:05:26.394Z,163.37
2023-02-15T03:08:39.063Z,196.77
2023-02-15T03:11:46.887Z,200.13
2023-02-15T03:14:55.328Z,192.77
2023-02-15T03:18:04.880Z,180.57
2023-02-15T03:21:22.987Z,194.87
2023-02-15T03:24:34.248Z,184.17
2023-02-15T03:27:43.068Z,166.70
2023-02-15T03:30:54.340Z,188.83
2023-02-15T03:34:03.882Z,198.43
2023-02-15T03:37:15.573Z,174.30
2023-02-15T03:40:44.120Z,191.47
2023-02-15T03:43:55.720Z,180.37
2023-02-15T03:47:07.222Z,188.00
2023-02-15T03:50:32.102Z,185.57
2023-02-15T03:53:38.462Z,191.67
2023-02-15T03:57:06.283Z,179.30
2023-02-15T04:00:33.500Z,171.43
2023-02-15T04:03:43.786Z,191.77
2023-02-15T04:06:49.464Z,175.03
2023-02-15T04:10:12.837Z,187.50
2023-02-15T04:13:19.919Z,173.77
2023-02-15T04:16:25.553Z,174.80
2023-02-15T04:19:48.759Z,185.27
2023-02-15T04:23:12.374Z,178.37
2023-02-15T04:26:18.262Z,176.63
2023-02-15T04:29:27.068Z,166.53
2023-02-15T04:32:32.965Z,167.63
2023-02-15T04:35:38.945Z,180.47
2023-02-15T04:38:44.542Z,169.87
2023-02-15T04:41:50.194Z,179.50
2023-02-15T04:44:57.254Z,164.73
2023-02-15T04:48:03.295Z,174.60
2023-02-15T04:51:10.402Z,167.53
2023-02-15T04:54:16.178Z,178.77
2023-02-15T04:57:21.732Z,171.70
2023-02-15T05:00:29.853Z,173.87
2023-02-15T05:03:35.830Z,170.13
2023-02-15T05:06:41.910Z,172.37
2023-02-15T05:09:47.464Z,177.77
2023-02-15T05:12:53.258Z,175.17
2023-02-15T05:16:00.671Z,191.83
2023-02-15T05:19:06.810Z,188.87
2023-02-15T05:22:12.125Z,173.07
2023-02-15T05:25:35.539Z,167.23
2023-02-15T05:28:41.420Z,173.60
2023-02-15T05:31:49.377Z,162.27
2023-02-15T05:34:54.977Z,169.27
2023-02-15T05:38:00.841Z,164.03
2023-02-15T05:41:07.184Z,174.70
2023-02-15T05:44:14.092Z,173.53
2023-02-15T05:47:21.484Z,161.97
2023-02-15T05:50:28.799Z,166.43
2023-02-15T05:53:37.415Z,182.80
2023-02-15T05:56:43.322Z,167.40
2023-02-15T05:59:49.546Z,168.23
2023-02-15T06:02:57.238Z,163.20
2023-02-15T06:06:05.412Z,160.27
2023-02-15T06:09:15.802Z,151.07
2023-02-15T06:12:21.794Z,151.63
2023-02-15T06:15:28.253Z,155.07
2023-02-15T06:18:36.214Z,147.93
2023-02-15T06:21:42.338Z,154.83
2023-02-15T06:24:47.929Z,152.03
2023-02-15T06:27:53.843Z,149.00
2023-02-15T06:30:59.454Z,141.70
2023-02-15T06:34:07.000Z,145.33
2023-02-15T06:37:12.738Z,150.90
2023-02-15T06:40:18.628Z,147.57
2023-02-15T06:43:24.288Z,137.33
2023-02-15T06:46:31.105Z,145.70
2023-02-15T06:49:38.156Z,137.17
2023-02-15T06:52:43.828Z,141.70
2023-02-15T06:55:49.822Z,135.67
2023-02-15T06:58:55.846Z,139.30
2023-02-15T07:02:01.391Z,140.47
2023-02-15T07:05:09.005Z,130.07
2023-02-15T07:08:14.460Z,127.23
2023-02-15T07:11:37.776Z,133.80
2023-02-15T07:14:43.266Z,129.13
2023-02-15T07:17:49.610Z,143.20
2023-02-15T07:20:56.508Z,137.97
2023-02-15T07:24:02.108Z,129.70
2023-02-15T07:27:09.317Z,145.23
2023-02-15T07:30:17.927Z,129.67
2023-02-15T07:33:28.122Z,139.83
2023-02-15T07:36:34.989Z,130.73
2023-02-15T07:39:40.585Z,129.17
2023-02-15T07:42:46.196Z,128.03
2023-02-15T07:45:52.049Z,130.53
2023-02-15T07:48:57.639Z,123.67
2023-02-15T07:52:05.055Z,121.70
2023-02-15T07:55:13.989Z,112.80
2023-02-15T07:58:19.886Z,118.40
2023-02-15T08:01:30.142Z,128.73
2023-02-15T08:04:35.815Z,125.90
2023-02-15T08:07:43.014Z,114.77
2023-02-15T08:11:05.666Z,108.87
2023-02-15T08:14:13.428Z,111.30
2023-02-15T08:17:19.319Z,111.20
2023-02-15T08:20:25.625Z,109.90
2023-02-15T08:23:32.876Z,105.10
2023-02-15T08:26:41.972Z,96.90
2023-02-15T08:29:48.045Z,88.27
2023-02-15T08:32:54.055Z,96.53
2023-02-15T08:36:04.994Z,83.30
2023-02-15T08:39:13.020Z,87.67
2023-02-15T08:42:18.726Z,79.27
2023-02-15T08:45:26.529Z,77.80
2023-02-15T08:48:32.576Z,73.80
2023-02-15T08:51:40.816Z,84.90
2023-02-15T08:54:47.749Z,66.73
2023-02-15T08:57:56.811Z,67.20
2023-02-15T09:01:04.356Z,68.03
2023-02-15T09:04:11.364Z,64.93
2023-02-15T09:07:19.810Z,66.13
2023-02-15T09:10:27.927Z,66.60
2023-02-15T09:13:33.440Z,69.77
2023-02-15T09:16:40.476Z,58.33
2023-02-15T09:19:46.384Z,61.40
2023-02-15T09:22:56.985Z,60.93
2023-02-15T09:26:11.369Z,54.83
2023-02-15T09:29:18.570Z,56.60
2023-02-15T09:32:24.319Z,49.87
2023-02-15T09:35:30.804Z,52.87
2023-02-15T09:38:36.515Z,56.70
2023-02-15T09:42:22.050Z,53.67
2023-02-15T09:45:40.636Z,56.33
2023-02-15T09:48:51.502Z,51.47
2023-02-15T09:52:16.365Z,48.40
2023-02-15T09:55:37.957Z,48.37
2023-02-15T09:58:53.614Z,50.13
2023-02-15T10:02:13.000Z,45.43
2023-02-15T10:05:29.572Z,46.90
2023-02-15T10:08:51.985Z,47.10
2023-02-15T10:12:13.267Z,45.50
2023-02-15T10:15:42.587Z,47.50
2023-02-15T10:19:01.458Z,45.10
2023-02-15T10:22:23.422Z,46.40
2023-02-15T10:25:43.182Z,43.77
2023-02-15T10:28:51.761Z,45.57
2023-02-15T10:32:06.987Z,45.07
2023-02-15T10:35:22.589Z,44.80
2023-02-15T10:38:39.314Z,43.50
2023-02-15T10:41:54.270Z,42.53
2023-02-15T10:45:20.687Z,40.03
2023-02-15T10:48:40.289Z,43.60
2023-02-15T10:51:58.708Z,48.40
2023-02-15T10:55:11.722Z,43.40
2023-02-15T10:58:29.037Z,42.97
2023-02-15T11:01:38.237Z,45.07
2023-02-15T11:04:57.344Z,42.83
2023-02-15T11:08:08.553Z,52.47
2023-02-15T11:11:22.624Z,43.93
2023-02-15T11:14:40.107Z,51.57
2023-02-15T11:17:52.282Z,47.80
2023-02-15T11:21:04.470Z,49.10
2023-02-15T11:24:15.633Z,48.57
2023-02-15T11:27:23.931Z,53.13
2023-02-15T11:30:40.619Z,49.73
2023-02-15T11:33:50.330Z,49.17
2023-02-15T11:36:57.862Z,49.40
2023-02-15T11:40:23.626Z,47.27
2023-02-15T11:43:32.625Z,47.80
2023-02-15T11:46:39.551Z,51.03
2023-02-15T11:49:47.902Z,51.70
2023-02-15T11:52:59.000Z,49.07
2023-02-15T11:56:07.121Z,49.57
2023-02-15T11:59:18.357Z,50.00
2023-02-15T12:02:27.617Z,50.40
2023-02-15T12:05:35.845Z,50.63
2023-02-15T12:08:45.263Z,51.97
2023-02-15T12:11:52.549Z,54.63
2023-02-15T12:15:00.023Z,63.00
2023-02-15T12:18:07.030Z,48.43
2023-02-15T12:21:14.826Z,53.23
2023-02-15T12:24:23.600Z,48.63
2023-02-15T12:27:32.948Z,48.80
2023-02-15T12:30:40.066Z,52.47
2023-02-15T12:33:46.920Z,53.50
2023-02-15T12:36:58.933Z,48.70
2023-02-15T12:40:22.129Z,46.70
2023-02-15T12:43:34.405Z,51.83
2023-02-15T12:46:40.852Z,48.90
2023-02-15T12:50:54.823Z,47.63
2023-02-15T12:54:04.936Z,51.23
2023-02-15T12:57:36.678Z,49.13
2023-02-15T13:00:43.838Z,49.30
2023-02-15T13:04:02.402Z,49.70
2023-02-15T13:07:14.014Z,55.67
2023-02-15T13:10:29.927Z,49.23
2023-02-15T13:13:38.023Z,51.27
2023-02-15T13:16:47.633Z,54.10
2023-02-15T13:19:56.177Z,54.23
2023-02-15T13:23:06.560Z,52.13
2023-02-15T13:26:17.970Z,51.60
2023-02-15T13:29:26.977Z,48.30
2023-02-15T13:32:38.381Z,49.83
2023-02-15T13:35:52.067Z,50.50
2023-02-15T13:39:11.821Z,50.17
2023-02-15T13:42:23.640Z,42.73
2023-02-15T13:45:41.669Z,45.23
2023-02-15T13:49:01.121Z,44.87
2023-02-15T13:52:19.234Z,45.80
2023-02-15T13:55:48.126Z,49.43
2023-02-15T13:59:29.410Z,48.40
2023-02-15T14:03:05.108Z,51.67
2023-02-15T14:06:22.206Z,54.00
2023-02-15T14:09:42.685Z,51.93
2023-02-15T14:13:07.578Z,50.63
2023-02-15T14:16:22.498Z,48.00
2023-02-15T14:19:37.092Z,52.30
2023-02-15T14:22:47.971Z,49.80
2023-02-15T14:25:59.535Z,48.37
2023-02-15T14:29:16.682Z,45.87
2023-02-15T14:32:29.988Z,48.37
2023-02-15T14:35:36.877Z,53.17
2023-02-15T14:38:56.053Z,52.53
2023-02-15T14:42:05.869Z,54.47
2023-02-15T14:45:22.784Z,53.27
2023-02-15T14:48:33.352Z,49.33
2023-02-15T14:52:03.015Z,50.00
2023-02-15T14:55:11.377Z,49.83
2023-02-15T14:58:17.594Z,49.37
2023-02-15T15:01:28.811Z,51.90
2023-02-15T15:04:38.516Z,50.47
2023-02-15T15:07:47.891Z,48.17
2023-02-15T15:10:55.357Z,50.70
2023-02-15T15:14:02.592Z,53.47
2023-02-15T15:17:11.962Z,55.67
2023-02-15T15:20:46.544Z,49.33
2023-02-15T15:23:52.795Z,52.47
2023-02-15T15:27:32.295Z,49.50
2023-02-15T15:31:06.996Z,49.47
2023-02-15T15:34:41.642Z,46.50
2023-02-15T15:38:24.729Z,50.73
2023-02-15T15:41:43.891Z,48.80
2023-02-15T15:45:19.307Z,47.67
2023-02-15T15:48:39.189Z,53.57
2023-02-15T15:51:47.210Z,48.33
2023-02-15T15:54:57.048Z,51.97
2023-02-15T15:58:06.145Z,51.13
2023-02-15T16:01:14.764Z,49.30
2023-02-15T16:04:31.033Z,58.13
2023-02-15T16:07:36.580Z,55.60
2023-02-15T16:10:43.239Z,60.83
2023-02-15T16:13:53.178Z,53.30
2023-02-15T16:17:02.669Z,54.00
2023-02-15T16:20:19.792Z,53.23
2023-02-15T16:23:50.553Z,52.77
2023-02-15T16:27:18.104Z,51.27
2023-02-15T16:30:27.480Z,52.17
2023-02-15T16:33:38.657Z,54.77
2023-02-15T16:36:45.843Z,51.63
2023-02-15T16:39:52.336Z,55.20
2023-02-15T16:43:04.061Z,57.17
2023-02-15T16:46:14.775Z,59.17
2023-02-15T16:49:23.131Z,57.83
2023-02-15T16:52:31.558Z,63.40
2023-02-15T16:55:42.304Z,57.17
2023-02-15T16:58:52.011Z,63.93
2023-02-15T17:01:58.722Z,61.33
2023-02-15T17:05:18.753Z,57.87
2023-02-15T17:08:30.830Z,64.23
2023-02-15T17:11:38.631Z,60.60
2023-02-15T17:14:45.321Z,68.77
2023-02-15T17:17:51.013Z,61.57
2023-02-15T17:21:00.983Z,67.53
2023-02-15T17:24:17.666Z,72.30
2023-02-15T17:27:26.977Z,65.90
2023-02-15T17:30:35.124Z,69.83
2023-02-15T17:33:41.318Z,77.73
2023-02-15T17:36:59.898Z,71.03
2023-02-15T17:40:21.602Z,64.57
2023-02-15T17:43:28.657Z,65.60
2023-02-15T17:46:38.683Z,64.90
2023-02-15T17:49:45.016Z,66.20
2023-02-15T17:52:50.732Z,66.70
2023-02-15T17:55:58.167Z,64.20
2023-02-15T17:59:07.568Z,67.17
2023-02-15T18:02:31.411Z,69.27
2023-02-15T18:05:54.671Z,70.20
2023-02-15T18:09:18.489Z,67.67
2023-02-15T18:12:27.780Z,67.43
2023-02-15T18:15:33.934Z,69.00
2023-02-15T18:18:39.778Z,67.77
2023-02-15T18:21:47.149Z,69.27
2023-02-15T18:24:52.816Z,66.33
2023-02-15T18:28:00.284Z,68.57
2023-02-15T18:31:06.932Z,67.90
2023-02-15T18:34:26.500Z,67.57
2023-02-15T18:37:33.950Z,68.83
2023-02-15T18:40:39.747Z,68.83
2023-02-15T18:43:48.841Z,65.50
2023-02-15T18:46:54.303Z,67.37
2023-02-15T18:50:00.327Z,72.97
2023-02-15T18:53:07.963Z,67.23
2023-02-15T18:56:19.297Z,70.30
2023-02-15T18:59:28.408Z,68.30
2023-02-15T19:02:34.556Z,66.13
2023-02-15T19:05:41.961Z,76.40
2023-02-15T19:08:50.768Z,73.60
2023-02-15T19:11:57.925Z,68.27
2023-02-15T19:15:06.154Z,71.50
2023-02-15T19:18:12.611Z,79.67
2023-02-15T19:21:18.814Z,73.87
2023-02-15T19:24:31.145Z,80.73
2023-02-15T19:27:37.793Z,72.90
2023-02-15T19:30:45.659Z,78.10
2023-02-15T19:33:51.440Z,75.73
2023-02-15T19:36:58.001Z,73.20
2023-02-15T19:40:04.034Z,72.40
2023-02-15T19:43:17.709Z,73.90
2023-02-15T19:46:27.808Z,71.40
2023-02-15T19:49:34.947Z,74.03
2023-02-15T19:52:41.232Z,77.50
2023-02-15T19:55:48.878Z,75.27
2023-02-15T19:58:57.878Z,75.27
2023-02-15T20:02:06.444Z,77.30
2023-02-15T20:05:12.628Z,71.97
2023-02-15T20:08:20.086Z,71.77
2023-02-15T20:11:25.910Z,74.53
2023-02-15T20:14:32.134Z,74.27
2023-02-15T20:17:39.178Z,71.63
2023-02-15T20:20:47.923Z,67.77
2023-02-15T20:23:54.603Z,71.43
2023-02-15T20:27:00.895Z,74.00
2023-02-15T20:30:15.866Z,76.60
2023-02-15T20:33:23.630Z,77.70
2023-02-15T20:36:29.207Z,73.43
2023-02-15T20:39:37.578Z,76.87
2023-02-15T20:42:43.219Z,76.30
2023-02-15T20:45:49.873Z,75.33
2023-02-15T20:48:56.921Z,75.43
2023-02-15T20:52:04.667Z,71.20
2023-02-15T20:55:14.954Z,72.60
2023-02-15T20:58:23.113Z,73.90
2023-02-15T21:01:29.010Z,73.27
2023-02-15T21:04:36.495Z,71.23
2023-02-15T21:07:42.053Z,70.40
2023-02-15T21:10:50.421Z,73.13
2023-02-15T21:13:56.169Z,73.40
2023-02-15T21:17:01.935Z,69.43
2023-02-15T21:20:14.388Z,80.67
2023-02-15T21:23:24.991Z,71.77
2023-02-15T21:26:30.729Z,74.17
2023-02-15T21:29:36.849Z,75.57
2023-02-15T21:32:42.306Z,72.33
2023-02-15T21:35:52.191Z,75.10
2023-02-15T21:38:57.779Z,72.50
2023-02-15T21:42:21.005Z,71.47
2023-02-15T21:45:44.138Z,74.30
2023-02-15T21:48:50.138Z,74.13
2023-02-15T21:52:14.491Z,79.30
2023-02-15T21:55:20.117Z,71.33
2023-02-15T21:58:27.388Z,73.77
2023-02-15T22:01:33.131Z,76.40
2023-02-15T22:04:39.603Z,73.57
2023-02-15T22:07:46.825Z,79.03
2023-02-15T22:10:54.503Z,80.40
2023-02-15T22:14:00.434Z,76.63
2023-02-15T22:17:16.466Z,74.17
2023-02-15T22:20:23.817Z,80.23
2023-02-15T22:23:31.128Z,75.53
2023-02-15T22:26:36.856Z,75.67
2023-02-15T22:29:42.774Z,74.30
2023-02-15T22:32:48.728Z,78.50
2023-02-15T22:35:54.893Z,71.80
2023-02-15T22:39:02.358Z,76.67
2023-02-15T22:42:20.876Z,78.07
2023-02-15T22:45:28.489Z,77.20
2023-02-15T22:48:35.088Z,77.67
2023-02-15T22:51:41.316Z,79.57
2023-02-15T22:54:48.677Z,79.47
2023-02-15T22:57:57.066Z,78.50
2023-02-15T23:01:03.804Z,75.80
2023-02-15T23:04:16.282Z,73.20
2023-02-15T23:07:23.216Z,78.53
2023-02-15T23:10:31.970Z,77.07
2023-02-15T23:13:38.395Z,80.87
2023-02-15T23:16:44.272Z,75.07
2023-02-15T23:19:50.155Z,88.97
2023-02-15T23:22:56.025Z,86.00
2023-02-15T23:26:04.604Z,85.33
2023-02-15T23:29:15.379Z,83.07
2023-02-15T23:32:22.244Z,90.00
2023-02-15T23:35:28.495Z,85.03
2023-02-15T23:38:34.542Z,82.33
2023-02-15T23:41:40.420Z,88.33
2023-02-15T23:44:47.325Z,89.13
2023-02-15T23:48:10.867Z,83.00
2023-02-15T23:51:16.825Z,85.13
2023-02-15T23:54:25.999Z,89.50
2023-02-15T23:57:33.117Z,87.60
